This is the latest recevied weather packets stored in our database for station/object YS1AHL-29. If no packets are shown the sender has not sent any weather packets the latest 10 day(s).
| Time | Temp. | Humidity | Pressure | Rain* | Wind** | Luminosity | Snow |
|---|---|---|---|---|---|---|---|
| 1777654902 | 16.11° C | 72% | 1017 hPa | 0 mm | - | - | - |
| 1777654842 | 16.11° C | 72% | 1017 hPa | 0 mm | - | - | - |
| 1777653100 | 15.56° C | 75% | 1017 hPa | 0 mm | - | - | - |
| 1777652500 | 15.56° C | 74% | 1017 hPa | 0 mm | - | - | - |
| 1777652439 | 15.56° C | 74% | 1017 hPa | 0 mm | - | - | - |
| 1777651899 | 15.56° C | 74% | 1017 hPa | 0 mm | - | - | - |
| 1777651839 | 15.56° C | 74% | 1017 hPa | 0 mm | - | - | - |
| 1777651299 | 15.56° C | 74% | 1017 hPa | 0 mm | - | - | - |
| 1777650638 | 14.44° C | 78% | 1017 hPa | 0 mm | - | - | - |
| 1777650097 | 14.44° C | 79% | 1017 hPa | 0 mm | - | - | - |
| 1777650037 | 14.44° C | 79% | 1017 hPa | 0 mm | - | - | - |
| 1777649497 | 13.89° C | 80% | 1017 hPa | 0 mm | - | - | - |
| 1777649437 | 13.89° C | 80% | 1017 hPa | 0 mm | - | - | - |
| 1777648896 | 13.89° C | 81% | 1017 hPa | 0 mm | - | - | - |
| 1777648836 | 13.89° C | 81% | 1017 hPa | 0 mm | - | - | - |
| 1777648296 | 13.89° C | 79% | 1016 hPa | 0 mm | - | - | - |
| 1777648236 | 13.89° C | 79% | 1016 hPa | 0 mm | - | - | - |
| 1777647696 | 13.33° C | 82% | 1017 hPa | 0 mm | - | - | - |
| 1777647635 | 13.33° C | 82% | 1017 hPa | 0 mm | - | - | - |
| 1777647095 | 12.78° C | 83% | 1017 hPa | 0 mm | - | - | - |
| 1777647035 | 12.78° C | 83% | 1017 hPa | 0 mm | - | - | - |
| 1777645894 | 11.67° C | 83% | 1017 hPa | 0 mm | - | - | - |
| 1777645834 | 11.67° C | 83% | 1017 hPa | 0 mm | - | - | - |
| 1777645293 | 11.67° C | 84% | 1016 hPa | 0 mm | - | - | - |
| 1777645233 | 11.67° C | 84% | 1016 hPa | 0 mm | - | - | - |
* Rain latest hour (hover to see other rain measurements)
** Current wind speed in m/s (hover to see current wind gust speed)